Time;durP1;ratioP1;P1;durP2;ratioP2;P2;SDS_P1;SDS_P2;PMS_P1;PMS_P2;Temp;Humidity;BMP_temperature;BMP_pressure;BME280_temperature;BME280_humidity;BME280_pressure;Samples;Min_cycle;Max_cycle;Signal;HPM_P1;HPM_P2
2021/04/03 00:00:04;;;;;;;49.03;29.20;;;;;;;;;;5016060;28;20465;-55
2021/04/03 00:02:30;;;;;;;48.45;29.95;;;;;;;;;;5015938;28;20032;-56
2021/04/03 00:04:56;;;;;;;79.90;43.17;;;;;;;;;;5015699;28;20018;-59
2021/04/03 00:07:24;;;;;;;99.05;53.08;;;;;;;;;;5015810;28;20033;-69
2021/04/03 00:09:50;;;;;;;73.05;41.15;;;;;;;;;;5015804;28;20157;-56
2021/04/03 00:12:18;;;;;;;83.47;49.10;;;;;;;;;;5015760;28;20502;-55
2021/04/03 00:14:48;;;;;;;121.93;63.20;;;;;;;;;;5015723;28;20498;-57
2021/04/03 00:17:15;;;;;;;72.80;39.22;;;;;;;;;;5015232;28;20469;-55
2021/04/03 00:19:41;;;;;;;109.55;61.63;;;;;;;;;;5015508;28;20033;-54
2021/04/03 00:22:07;;;;;;;89.30;50.28;;;;;;;;;;5015641;28;20104;-54
2021/04/03 00:24:33;;;;;;;83.38;46.08;;;;;;;;;;5015357;28;20080;-55
2021/04/03 00:27:00;;;;;;;78.07;45.75;;;;;;;;;;5015488;28;20389;-53
2021/04/03 00:29:26;;;;;;;56.05;31.77;;;;;;;;;;5015472;28;20029;-57
2021/04/03 00:31:52;;;;;;;44.05;27.13;;;;;;;;;;5015341;28;20380;-56
2021/04/03 00:34:18;;;;;;;52.08;30.27;;;;;;;;;;5014785;28;20241;-56
2021/04/03 00:36:45;;;;;;;93.28;51.90;;;;;;;;;;5015077;28;20033;-57
2021/04/03 00:39:11;;;;;;;81.95;45.38;;;;;;;;;;5015107;28;20029;-56
2021/04/03 00:41:37;;;;;;;70.40;38.72;;;;;;;;;;5015138;28;20381;-58
2021/04/03 00:44:06;;;;;;;52.47;32.08;;;;;;;;;;5015081;28;20030;-60
2021/04/03 00:46:32;;;;;;;91.40;52.90;;;;;;;;;;5014860;28;20041;-57
2021/04/03 00:48:58;;;;;;;64.65;38.30;;;;;;;;;;5015025;28;20026;-57
2021/04/03 00:51:24;;;;;;;92.65;49.75;;;;;;;;;;5014920;28;20038;-59
2021/04/03 00:53:50;;;;;;;55.90;32.50;;;;;;;;;;5014853;28;20470;-57
2021/04/03 00:56:17;;;;;;;62.00;32.03;;;;;;;;;;5014830;28;20145;-57
2021/04/03 00:58:43;;;;;;;57.38;32.58;;;;;;;;;;5014901;28;20022;-55
2021/04/03 01:01:09;;;;;;;79.28;41.55;;;;;;;;;;5014669;28;20065;-56
2021/04/03 01:03:35;;;;;;;70.90;37.78;;;;;;;;;;5014770;28;20451;-56
2021/04/03 01:06:01;;;;;;;69.03;38.00;;;;;;;;;;5014663;28;20018;-54
2021/04/03 01:08:27;;;;;;;66.13;37.83;;;;;;;;;;5014598;28;20088;-55
2021/04/03 01:10:55;;;;;;;102.50;59.25;;;;;;;;;;5014589;28;20026;-56
2021/04/03 01:13:21;;;;;;;59.75;34.63;;;;;;;;;;5014560;28;20026;-56
2021/04/03 01:16:02;;;;;;;68.78;40.58;;;;;;;;;;5014267;28;20057;-55
2021/04/03 01:18:28;;;;;;;;;;;;;;;;;;5014780;28;20073;-56
2021/04/03 01:21:00;;;;;;;65.55;39.70;;;;;;;;;;5014546;28;19945;-57
2021/04/03 01:23:44;;;;;;;55.72;34.63;;;;;;;;;;5014361;28;20088;-55
2021/04/03 01:26:29;;;;;;;49.33;30.15;;;;;;;;;;4996969;28;20033;-56
2021/04/03 01:29:10;;;;;;;62.88;37.35;;;;;;;;;;5014484;28;20037;-55
2021/04/03 01:31:37;;;;;;;55.30;32.00;;;;;;;;;;5014335;28;20065;-55
2021/04/03 01:34:06;;;;;;;61.13;36.50;;;;;;;;;;5014328;28;20076;-55
2021/04/03 01:36:33;;;;;;;47.05;28.65;;;;;;;;;;5014268;28;20031;-55
2021/04/03 01:39:06;;;;;;;42.10;26.33;;;;;;;;;;5014090;28;20038;-55
2021/04/03 01:41:35;;;;;;;52.45;28.67;;;;;;;;;;5013862;28;20065;-55
2021/04/03 01:44:02;;;;;;;39.10;25.67;;;;;;;;;;5014058;28;20026;-55
2021/04/03 01:46:29;;;;;;;56.15;30.60;;;;;;;;;;5013111;28;20030;-55
2021/04/03 01:48:58;;;;;;;96.80;48.70;;;;;;;;;;5013974;28;20445;-55
2021/04/03 01:51:25;;;;;;;77.75;40.47;;;;;;;;;;5013886;28;20017;-54
2021/04/03 01:53:51;;;;;;;77.82;43.30;;;;;;;;;;5013903;28;20030;-56
2021/04/03 01:56:19;;;;;;;75.22;40.05;;;;;;;;;;5013778;28;20025;-55
2021/04/03 01:58:48;;;;;;;49.83;29.15;;;;;;;;;;5013972;28;20105;-56
2021/04/03 02:01:17;;;;;;;50.15;25.55;;;;;;;;;;5013753;28;20051;-55
2021/04/03 02:03:49;;;;;;;55.97;28.70;;;;;;;;;;5013850;28;20025;-58
2021/04/03 02:06:16;;;;;;;46.58;25.58;;;;;;;;;;5013718;28;20414;-56
2021/04/03 02:08:44;;;;;;;52.35;31.17;;;;;;;;;;5013949;28;20442;-58
2021/04/03 02:11:10;;;;;;;39.30;23.83;;;;;;;;;;5013421;28;20474;-57
2021/04/03 02:13:36;;;;;;;47.70;28.25;;;;;;;;;;4995664;28;20044;-58
2021/04/03 02:16:07;;;;;;;42.22;25.20;;;;;;;;;;5013383;28;20042;-59
2021/04/03 02:18:36;;;;;;;29.63;18.27;;;;;;;;;;5013580;28;20051;-60
2021/04/03 02:21:06;;;;;;;46.92;25.55;;;;;;;;;;5013645;28;20022;-55
2021/04/03 02:23:36;;;;;;;38.35;22.30;;;;;;;;;;5013490;28;20105;-63
2021/04/03 02:26:03;;;;;;;34.65;19.40;;;;;;;;;;5013500;28;20053;-55
2021/04/03 02:28:29;;;;;;;32.83;19.08;;;;;;;;;;5013484;28;20073;-56
2021/04/03 02:30:55;;;;;;;27.73;18.48;;;;;;;;;;5013398;28;20030;-55
2021/04/03 02:33:21;;;;;;;22.67;16.17;;;;;;;;;;5013583;28;20460;-55
2021/04/03 02:35:50;;;;;;;24.58;16.67;;;;;;;;;;5013435;28;20026;-60
2021/04/03 02:38:17;;;;;;;26.27;14.30;;;;;;;;;;5013341;28;20030;-56
2021/04/03 02:40:43;;;;;;;25.65;15.68;;;;;;;;;;5013300;28;20053;-56
2021/04/03 02:43:28;;;;;;;20.05;13.65;;;;;;;;;;5013432;28;20022;-56
2021/04/03 02:45:59;;;;;;;21.85;13.85;;;;;;;;;;5013251;28;20024;-58
2021/04/03 02:48:27;;;;;;;23.88;14.48;;;;;;;;;;4995758;28;20053;-56
2021/04/03 02:50:59;;;;;;;23.92;15.52;;;;;;;;;;5013431;28;20026;-56
2021/04/03 02:53:28;;;;;;;25.33;14.40;;;;;;;;;;5013410;28;20119;-58
2021/04/03 02:55:55;;;;;;;24.75;14.15;;;;;;;;;;5013414;28;20030;-57
2021/04/03 02:58:23;;;;;;;25.17;14.95;;;;;;;;;;5017160;28;20388;-56
2021/04/03 03:00:54;;;;;;;20.95;13.18;;;;;;;;;;5017322;28;20053;-59
2021/04/03 03:03:25;;;;;;;22.88;14.40;;;;;;;;;;5017418;28;20026;-57
2021/04/03 03:05:53;;;;;;;;;;;;;;;;;;5017657;28;20393;-61
2021/04/03 03:08:20;;;;;;;21.85;13.70;;;;;;;;;;5017194;28;19906;-57
2021/04/03 03:10:49;;;;;;;19.73;13.13;;;;;;;;;;5016965;28;20022;-57
2021/04/03 03:13:17;;;;;;;21.65;14.02;;;;;;;;;;5016907;28;20506;-56
2021/04/03 03:15:43;;;;;;;20.65;13.15;;;;;;;;;;5016531;28;20435;-56
2021/04/03 03:18:10;;;;;;;19.80;12.57;;;;;;;;;;5016641;28;20054;-57
2021/04/03 03:20:36;;;;;;;24.80;13.23;;;;;;;;;;5017094;28;20022;-56
2021/04/03 03:23:03;;;;;;;21.60;12.23;;;;;;;;;;5016833;28;20443;-56
2021/04/03 03:25:29;;;;;;;17.17;12.20;;;;;;;;;;5016671;28;20462;-56
2021/04/03 03:27:56;;;;;;;20.17;12.25;;;;;;;;;;5016697;28;20083;-58
2021/04/03 03:30:23;;;;;;;20.48;13.00;;;;;;;;;;5016684;28;20084;-56
2021/04/03 03:32:49;;;;;;;19.23;11.98;;;;;;;;;;5016621;28;20032;-58
2021/04/03 03:35:15;;;;;;;23.65;14.00;;;;;;;;;;5016495;28;20029;-56
2021/04/03 03:37:42;;;;;;;17.10;12.25;;;;;;;;;;5016522;28;20393;-56
2021/04/03 03:40:08;;;;;;;16.88;12.02;;;;;;;;;;5016465;28;20033;-58
2021/04/03 03:42:37;;;;;;;19.52;12.63;;;;;;;;;;5016463;28;20038;-55
2021/04/03 03:45:04;;;;;;;17.67;11.90;;;;;;;;;;5016164;28;20061;-57
2021/04/03 03:47:30;;;;;;;20.42;12.07;;;;;;;;;;5016371;28;20026;-57
2021/04/03 03:49:57;;;;;;;22.88;12.55;;;;;;;;;;5016277;28;20363;-57
2021/04/03 03:52:23;;;;;;;18.77;12.35;;;;;;;;;;5016187;28;20033;-56
2021/04/03 03:54:51;;;;;;;20.02;12.77;;;;;;;;;;5016038;28;20026;-65
2021/04/03 03:57:17;;;;;;;20.45;12.48;;;;;;;;;;5016146;28;20069;-63
2021/04/03 03:59:43;;;;;;;15.02;11.30;;;;;;;;;;5016059;28;20017;-61
2021/04/03 04:02:09;;;;;;;17.65;12.07;;;;;;;;;;5016031;28;20482;-56
2021/04/03 04:04:35;;;;;;;17.08;11.93;;;;;;;;;;5015917;28;20030;-55
2021/04/03 04:07:02;;;;;;;21.63;12.55;;;;;;;;;;5015993;28;20033;-55
2021/04/03 04:09:29;;;;;;;18.17;12.20;;;;;;;;;;4997429;28;20038;-55
2021/04/03 04:11:55;;;;;;;17.15;11.52;;;;;;;;;;5015984;28;20382;-55
2021/04/03 04:14:21;;;;;;;20.15;11.60;;;;;;;;;;5015853;28;20088;-62
2021/04/03 04:16:47;;;;;;;21.08;13.68;;;;;;;;;;5015512;28;20084;-55
2021/04/03 04:19:16;;;;;;;18.77;11.93;;;;;;;;;;5015574;28;20087;-55
2021/04/03 04:21:42;;;;;;;15.43;11.63;;;;;;;;;;5015700;28;20029;-56
2021/04/03 04:24:08;;;;;;;18.50;12.40;;;;;;;;;;5015851;28;20033;-55
2021/04/03 04:26:34;;;;;;;18.98;12.52;;;;;;;;;;5015409;28;20053;-55
2021/04/03 04:29:00;;;;;;;23.48;14.70;;;;;;;;;;5015864;28;20072;-60
2021/04/03 04:31:26;;;;;;;22.48;14.80;;;;;;;;;;5015507;28;20112;-55
2021/04/03 04:33:52;;;;;;;21.15;14.48;;;;;;;;;;5015307;28;20029;-57
2021/04/03 04:36:19;;;;;;;28.63;15.65;;;;;;;;;;5015561;28;20022;-55
2021/04/03 04:38:45;;;;;;;20.92;14.52;;;;;;;;;;5015372;28;20096;-54
2021/04/03 04:41:11;;;;;;;22.00;14.38;;;;;;;;;;5015221;28;20022;-55
2021/04/03 04:43:37;;;;;;;23.50;14.77;;;;;;;;;;5015331;28;20148;-55
2021/04/03 04:46:03;;;;;;;21.50;12.82;;;;;;;;;;5015029;28;20497;-62
2021/04/03 04:48:29;;;;;;;20.10;13.38;;;;;;;;;;5015094;28;20034;-63
2021/04/03 04:50:57;;;;;;;16.08;11.88;;;;;;;;;;5015081;28;20018;-54
2021/04/03 04:53:23;;;;;;;19.85;12.63;;;;;;;;;;5015070;28;20026;-59
2021/04/03 04:55:49;;;;;;;21.35;12.55;;;;;;;;;;5014954;28;20025;-55
2021/04/03 04:58:16;;;;;;;17.88;12.00;;;;;;;;;;5014975;28;20025;-54
2021/04/03 05:00:42;;;;;;;18.08;12.15;;;;;;;;;;5014850;28;20378;-55
2021/04/03 05:03:08;;;;;;;17.50;12.13;;;;;;;;;;5014904;28;20109;-54
2021/04/03 05:05:34;;;;;;;20.52;13.15;;;;;;;;;;5015097;28;20100;-54
2021/04/03 05:08:00;;;;;;;18.55;12.55;;;;;;;;;;5014907;28;20026;-56
2021/04/03 05:10:26;;;;;;;19.75;12.73;;;;;;;;;;5014683;28;20025;-54
2021/04/03 05:12:52;;;;;;;18.23;11.98;;;;;;;;;;5014945;28;20513;-54
2021/04/03 05:15:18;;;;;;;18.00;13.00;;;;;;;;;;5014644;28;20033;-55
2021/04/03 05:17:44;;;;;;;20.73;12.55;;;;;;;;;;5014419;28;20086;-55
2021/04/03 05:20:11;;;;;;;18.10;12.18;;;;;;;;;;5014457;28;20109;-55
2021/04/03 05:22:37;;;;;;;20.80;12.82;;;;;;;;;;5015056;28;20030;-55
2021/04/03 05:25:03;;;;;;;18.25;12.55;;;;;;;;;;5014577;28;20469;-55
2021/04/03 05:27:29;;;;;;;16.95;12.00;;;;;;;;;;5014463;28;20030;-54
2021/04/03 05:29:58;;;;;;;19.75;12.23;;;;;;;;;;5014678;28;20037;-55
2021/04/03 05:32:24;;;;;;;17.02;11.90;;;;;;;;;;5014367;28;20021;-54
2021/04/03 05:34:50;;;;;;;18.73;13.13;;;;;;;;;;5014501;28;20026;-54
2021/04/03 05:37:16;;;;;;;18.48;12.32;;;;;;;;;;5014642;28;20084;-54
2021/04/03 05:39:42;;;;;;;19.83;12.93;;;;;;;;;;5014129;28;20026;-55
2021/04/03 05:42:12;;;;;;;19.30;13.25;;;;;;;;;;5014351;28;20087;-55
2021/04/03 05:44:38;;;;;;;22.20;13.73;;;;;;;;;;5014188;28;20073;-55
2021/04/03 05:47:05;;;;;;;19.52;14.18;;;;;;;;;;5013975;28;20037;-55
2021/04/03 05:49:31;;;;;;;21.45;14.32;;;;;;;;;;5014059;28;20033;-56
2021/04/03 05:51:57;;;;;;;19.75;14.10;;;;;;;;;;5014427;28;20172;-56
2021/04/03 05:54:23;;;;;;;25.33;15.35;;;;;;;;;;5014359;28;20038;-55
2021/04/03 05:56:49;;;;;;;20.85;14.80;;;;;;;;;;5014051;28;20097;-63
2021/04/03 05:59:15;;;;;;;23.90;15.63;;;;;;;;;;5014089;28;20382;-56
2021/04/03 06:01:41;;;;;;;23.40;15.10;;;;;;;;;;5013975;28;20101;-55
2021/04/03 06:04:08;;;;;;;21.95;14.68;;;;;;;;;;5013818;28;20022;-61
2021/04/03 06:06:34;;;;;;;25.83;16.25;;;;;;;;;;5014005;28;20026;-55
2021/04/03 06:09:01;;;;;;;25.85;15.65;;;;;;;;;;5013924;28;20029;-56
2021/04/03 06:11:27;;;;;;;21.10;14.32;;;;;;;;;;5013701;28;20363;-56
2021/04/03 06:13:56;;;;;;;21.60;14.45;;;;;;;;;;5014018;28;20025;-67
2021/04/03 06:16:33;;;;;;;20.75;15.48;;;;;;;;;;5013473;28;20041;-56
2021/04/03 06:19:13;;;;;;;26.75;15.00;;;;;;;;;;5013453;28;20052;-56
2021/04/03 06:21:39;;;;;;;22.30;14.35;;;;;;;;;;5013782;28;20057;-57
2021/04/03 06:24:15;;;;;;;21.15;13.93;;;;;;;;;;5013780;28;20474;-56
2021/04/03 06:26:41;;;;;;;21.50;14.73;;;;;;;;;;5013512;28;20033;-55
2021/04/03 06:29:27;;;;;;;25.45;15.82;;;;;;;;;;5013515;28;20022;-56
2021/04/03 06:31:54;;;;;;;26.65;16.67;;;;;;;;;;5017322;28;20104;-55
2021/04/03 06:34:30;;;;;;;23.52;16.58;;;;;;;;;;5020409;28;20022;-65
2021/04/03 06:36:57;;;;;;;22.30;15.95;;;;;;;;;;5020025;28;20026;-55
2021/04/03 06:39:23;;;;;;;25.17;15.80;;;;;;;;;;5020119;28;20030;-56
2021/04/03 06:41:50;;;;;;;28.88;17.60;;;;;;;;;;5019873;28;20389;-55
2021/04/03 06:44:16;;;;;;;23.92;16.50;;;;;;;;;;5020188;28;20080;-59
2021/04/03 06:46:43;;;;;;;29.70;19.20;;;;;;;;;;5019833;28;20029;-55
2021/04/03 06:49:09;;;;;;;29.73;19.23;;;;;;;;;;5020132;28;20032;-57
2021/04/03 06:51:36;;;;;;;33.67;22.15;;;;;;;;;;5020015;28;20036;-63
2021/04/03 06:54:03;;;;;;;32.38;22.35;;;;;;;;;;5019955;28;20052;-55
2021/04/03 06:56:36;;;;;;;30.60;20.17;;;;;;;;;;5019797;28;20081;-58
2021/04/03 06:59:06;;;;;;;26.13;16.70;;;;;;;;;;5019822;28;20421;-55
2021/04/03 07:01:52;;;;;;;22.05;15.27;;;;;;;;;;5019828;28;20021;-53
2021/04/03 07:04:27;;;;;;;22.23;15.70;;;;;;;;;;5019835;28;20026;-64
2021/04/03 07:06:54;;;;;;;24.90;16.42;;;;;;;;;;5019774;28;20040;-56
2021/04/03 07:09:20;;;;;;;23.48;15.20;;;;;;;;;;5019590;28;20033;-55
2021/04/03 07:11:48;;;;;;;26.83;17.15;;;;;;;;;;5019812;28;20030;-62
2021/04/03 07:14:18;;;;;;;26.90;18.30;;;;;;;;;;5019802;28;20029;-66
2021/04/03 07:16:44;;;;;;;24.65;16.92;;;;;;;;;;5019623;28;20486;-55
2021/04/03 07:19:11;;;;;;;23.42;15.68;;;;;;;;;;5019654;28;20042;-55
2021/04/03 07:21:37;;;;;;;28.00;17.15;;;;;;;;;;5019627;28;20109;-56
2021/04/03 07:24:04;;;;;;;23.80;16.15;;;;;;;;;;5019469;28;20034;-56
2021/04/03 07:26:30;;;;;;;21.00;14.73;;;;;;;;;;5019572;28;20025;-56
2021/04/03 07:28:58;;;;;;;25.38;16.27;;;;;;;;;;5019021;28;20057;-56
2021/04/03 07:31:41;;;;;;;27.33;17.20;;;;;;;;;;5019481;28;20108;-56
2021/04/03 07:34:08;;;;;;;32.60;19.55;;;;;;;;;;5001691;28;20029;-56
2021/04/03 07:36:36;;;;;;;35.92;22.73;;;;;;;;;;5019363;28;20029;-56
2021/04/03 07:39:04;;;;;;;39.00;22.90;;;;;;;;;;5019502;28;20034;-57
2021/04/03 07:41:37;;;;;;;48.83;27.05;;;;;;;;;;5019125;28;20029;-56
2021/04/03 07:44:14;;;;;;;48.45;27.98;;;;;;;;;;5015438;28;20034;-56
2021/04/03 07:46:41;;;;;;;49.00;27.80;;;;;;;;;;5016000;28;20482;-55
2021/04/03 07:49:08;;;;;;;49.88;31.00;;;;;;;;;;5015894;28;20026;-56
2021/04/03 07:51:34;;;;;;;42.70;27.23;;;;;;;;;;5016061;28;20026;-56
2021/04/03 07:54:01;;;;;;;48.50;31.27;;;;;;;;;;5016002;28;20030;-56
2021/04/03 07:56:47;;;;;;;51.70;31.50;;;;;;;;;;5016069;28;20149;-54
2021/04/03 07:59:14;;;;;;;74.60;42.75;;;;;;;;;;5015521;28;20041;-56
2021/04/03 08:01:40;;;;;;;64.85;38.90;;;;;;;;;;5015667;28;20080;-54
2021/04/03 08:04:07;;;;;;;46.33;28.08;;;;;;;;;;5016032;28;20037;-57
2021/04/03 08:06:33;;;;;;;69.57;40.70;;;;;;;;;;5015762;28;20025;-54
2021/04/03 08:09:00;;;;;;;37.60;23.50;;;;;;;;;;5015762;28;20030;-55
2021/04/03 08:11:27;;;;;;;28.88;18.23;;;;;;;;;;5015578;28;20401;-53
2021/04/03 08:13:54;;;;;;;36.83;24.27;;;;;;;;;;5015633;28;20036;-57
2021/04/03 08:16:20;;;;;;;33.80;22.80;;;;;;;;;;5015349;28;20401;-56
2021/04/03 08:18:51;;;;;;;29.52;20.45;;;;;;;;;;5015609;28;20100;-59
2021/04/03 08:21:17;;;;;;;44.78;28.50;;;;;;;;;;5015485;28;20028;-59
2021/04/03 08:23:46;;;;;;;61.72;37.45;;;;;;;;;;5015482;28;20061;-54
2021/04/03 08:26:12;;;;;;;74.55;38.17;;;;;;;;;;5015516;28;20024;-53
2021/04/03 08:28:38;;;;;;;101.90;49.53;;;;;;;;;;5015362;28;20113;-53
2021/04/03 08:31:18;;;;;;;47.72;25.02;;;;;;;;;;5015367;28;20085;-55
2021/04/03 08:33:45;;;;;;;56.85;31.13;;;;;;;;;;5015433;28;20041;-57
2021/04/03 08:36:14;;;;;;;61.40;31.92;;;;;;;;;;5015557;28;20057;-55
2021/04/03 08:38:43;;;;;;;49.80;27.08;;;;;;;;;;5015118;28;20105;-54
2021/04/03 08:41:09;;;;;;;53.38;28.83;;;;;;;;;;5015214;28;20022;-57
2021/04/03 08:43:35;;;;;;;35.30;20.83;;;;;;;;;;5015188;28;20026;-54
2021/04/03 08:46:03;;;;;;;41.22;24.58;;;;;;;;;;5014969;28;20505;-55
2021/04/03 08:48:33;;;;;;;26.17;18.02;;;;;;;;;;5015199;28;20038;-54
2021/04/03 08:51:00;;;;;;;23.75;14.40;;;;;;;;;;5015197;28;20014;-58
2021/04/03 08:53:35;;;;;;;23.02;16.00;;;;;;;;;;4997471;28;20080;-57
2021/04/03 08:56:01;;;;;;;21.65;13.85;;;;;;;;;;5014492;28;20470;-57
2021/04/03 08:58:27;;;;;;;23.23;15.27;;;;;;;;;;5014787;28;20076;-57
2021/04/03 09:00:54;;;;;;;23.98;16.05;;;;;;;;;;5014999;28;20022;-53
2021/04/03 09:03:20;;;;;;;29.10;19.08;;;;;;;;;;5014566;28;20496;-54
2021/04/03 09:05:49;;;;;;;32.63;23.35;;;;;;;;;;5015031;28;20386;-55
2021/04/03 09:08:20;;;;;;;31.38;22.85;;;;;;;;;;4997435;28;20022;-54
2021/04/03 09:10:52;;;;;;;50.97;38.50;;;;;;;;;;5014665;28;20014;-54
2021/04/03 09:13:17;;;;;;;;;;;;;;;;;;5015073;28;20057;-53
2021/04/03 09:15:47;;;;;;;23.95;18.90;;;;;;;;;;5014403;28;20333;-55
2021/04/03 09:18:13;;;;;;;27.73;17.77;;;;;;;;;;5014708;28;20044;-55
2021/04/03 09:20:46;;;;;;;24.40;16.92;;;;;;;;;;5014491;28;20026;-55
2021/04/03 09:23:12;;;;;;;25.55;17.80;;;;;;;;;;5014435;28;20022;-55
2021/04/03 09:25:38;;;;;;;25.90;17.95;;;;;;;;;;5014482;28;20437;-55
2021/04/03 09:28:05;;;;;;;23.02;15.90;;;;;;;;;;5014315;28;20077;-55
2021/04/03 09:30:36;;;;;;;27.45;17.88;;;;;;;;;;5014282;28;20030;-56
2021/04/03 09:33:16;;;;;;;26.67;17.48;;;;;;;;;;5014291;28;20025;-55
2021/04/03 09:35:43;;;;;;;22.63;15.77;;;;;;;;;;5014751;28;20404;-56
2021/04/03 09:38:09;;;;;;;24.58;16.92;;;;;;;;;;5014166;28;20065;-55
2021/04/03 09:40:38;;;;;;;25.10;15.63;;;;;;;;;;5014148;28;20033;-54
2021/04/03 09:43:04;;;;;;;19.65;13.45;;;;;;;;;;5014213;28;20026;-54
2021/04/03 09:45:30;;;;;;;18.55;14.27;;;;;;;;;;5014249;28;20505;-55
2021/04/03 09:47:57;;;;;;;22.30;15.23;;;;;;;;;;5014244;28;20033;-54
2021/04/03 09:50:24;;;;;;;20.95;14.82;;;;;;;;;;5014183;28;20029;-54
2021/04/03 09:52:50;;;;;;;17.98;14.02;;;;;;;;;;5013964;28;20501;-54
2021/04/03 09:55:16;;;;;;;17.55;13.77;;;;;;;;;;5013869;28;20026;-54
2021/04/03 09:57:42;;;;;;;17.15;12.60;;;;;;;;;;5013868;28;20041;-54
2021/04/03 10:00:09;;;;;;;24.77;15.05;;;;;;;;;;5013937;28;20018;-54
2021/04/03 10:02:35;;;;;;;20.75;14.93;;;;;;;;;;5013829;28;20036;-54
2021/04/03 10:05:02;;;;;;;21.98;15.05;;;;;;;;;;5013766;28;20050;-55
2021/04/03 10:07:28;;;;;;;22.48;15.02;;;;;;;;;;5013111;28;20026;-54
2021/04/03 10:09:54;;;;;;;19.70;14.77;;;;;;;;;;5013696;28;20121;-55
2021/04/03 10:12:20;;;;;;;21.95;15.00;;;;;;;;;;5013975;28;20088;-54
2021/04/03 10:14:46;;;;;;;19.48;14.85;;;;;;;;;;5014001;28;20056;-54
2021/04/03 10:17:12;;;;;;;17.63;13.30;;;;;;;;;;5013584;28;20054;-54
2021/04/03 10:19:38;;;;;;;20.45;14.60;;;;;;;;;;5013831;28;20121;-53
2021/04/03 10:22:05;;;;;;;22.58;14.82;;;;;;;;;;5013951;28;20128;-55
2021/04/03 10:24:31;;;;;;;24.00;16.17;;;;;;;;;;5013562;28;20033;-54
2021/04/03 10:26:59;;;;;;;23.92;17.10;;;;;;;;;;5013672;28;20101;-55
2021/04/03 10:29:25;;;;;;;25.58;16.58;;;;;;;;;;5013837;28;20105;-55
2021/04/03 10:31:51;;;;;;;24.75;16.55;;;;;;;;;;5013726;28;20113;-54
2021/04/03 10:34:17;;;;;;;20.52;15.30;;;;;;;;;;5013512;28;20540;-55
2021/04/03 10:36:43;;;;;;;19.92;14.77;;;;;;;;;;5013714;28;20104;-55
2021/04/03 10:39:09;;;;;;;25.42;16.67;;;;;;;;;;5013454;28;20080;-56
2021/04/03 10:41:38;;;;;;;21.10;15.63;;;;;;;;;;5013541;28;20504;-53
2021/04/03 10:44:05;;;;;;;22.90;16.08;;;;;;;;;;5013448;28;20029;-55
2021/04/03 10:46:31;;;;;;;19.88;15.18;;;;;;;;;;5013392;28;20080;-56
2021/04/03 10:48:57;;;;;;;20.85;14.82;;;;;;;;;;5013337;28;20112;-57
2021/04/03 10:51:23;;;;;;;25.67;16.15;;;;;;;;;;5013406;28;20022;-53
2021/04/03 10:53:50;;;;;;;22.40;15.43;;;;;;;;;;5013439;28;20018;-56
2021/04/03 10:56:18;;;;;;;17.83;14.25;;;;;;;;;;5013139;28;20030;-55
2021/04/03 10:58:50;;;;;;;19.27;14.77;;;;;;;;;;5013116;28;20073;-56
2021/04/03 11:01:16;;;;;;;20.15;14.88;;;;;;;;;;5013465;28;20018;-55
2021/04/03 11:03:43;;;;;;;20.23;14.27;;;;;;;;;;5013533;28;20030;-56
2021/04/03 11:06:09;;;;;;;18.55;13.45;;;;;;;;;;5013188;28;20470;-56
2021/04/03 11:08:38;;;;;;;21.73;14.20;;;;;;;;;;5013202;28;20030;-55
2021/04/03 11:11:05;;;;;;;18.67;14.27;;;;;;;;;;5013150;28;20022;-54
2021/04/03 11:13:32;;;;;;;17.80;13.45;;;;;;;;;;5013052;28;20101;-54
2021/04/03 11:16:00;;;;;;;18.80;13.13;;;;;;;;;;5013056;28;20560;-54
2021/04/03 11:18:26;;;;;;;15.23;11.93;;;;;;;;;;5015477;28;20506;-56
2021/04/03 11:20:52;;;;;;;17.13;12.18;;;;;;;;;;5016867;28;20478;-54
2021/04/03 11:23:18;;;;;;;20.10;12.90;;;;;;;;;;5016661;28;20022;-54
2021/04/03 11:25:46;;;;;;;18.00;12.65;;;;;;;;;;5016728;28;20052;-56
2021/04/03 11:28:12;;;;;;;16.73;12.63;;;;;;;;;;5016677;28;20559;-57
2021/04/03 11:30:38;;;;;;;17.20;12.80;;;;;;;;;;5016583;28;20036;-55
2021/04/03 11:33:04;;;;;;;16.00;12.25;;;;;;;;;;5016733;28;20555;-55
2021/04/03 11:35:32;;;;;;;19.77;13.90;;;;;;;;;;5016559;28;20026;-55
2021/04/03 11:37:58;;;;;;;17.20;14.20;;;;;;;;;;5016319;28;20041;-55
2021/04/03 11:40:24;;;;;;;18.23;12.95;;;;;;;;;;5016395;28;20033;-55
2021/04/03 11:42:55;;;;;;;19.40;14.38;;;;;;;;;;5016427;28;20385;-55
2021/04/03 11:45:22;;;;;;;21.83;15.02;;;;;;;;;;5016407;28;20437;-56
2021/04/03 11:47:48;;;;;;;21.83;14.40;;;;;;;;;;5016344;28;20035;-55
2021/04/03 11:50:17;;;;;;;21.40;13.93;;;;;;;;;;5016339;28;20529;-55
2021/04/03 11:52:43;;;;;;;22.13;14.02;;;;;;;;;;5016103;28;20037;-55
2021/04/03 11:55:09;;;;;;;22.38;16.17;;;;;;;;;;5016198;28;20106;-55
2021/04/03 11:57:36;;;;;;;23.10;14.70;;;;;;;;;;5016041;28;20029;-56
2021/04/03 12:00:03;;;;;;;32.15;17.55;;;;;;;;;;5016015;28;20025;-56
2021/04/03 12:02:29;;;;;;;32.63;15.85;;;;;;;;;;5016325;28;20109;-56
2021/04/03 12:04:57;;;;;;;19.20;13.95;;;;;;;;;;5016362;28;20088;-55
2021/04/03 12:07:23;;;;;;;21.27;14.45;;;;;;;;;;5015937;28;20053;-56
2021/04/03 12:09:51;;;;;;;19.30;13.77;;;;;;;;;;5015921;28;20030;-56
2021/04/03 12:12:17;;;;;;;20.38;12.70;;;;;;;;;;5015838;28;20029;-55
2021/04/03 12:14:43;;;;;;;14.25;11.00;;;;;;;;;;5016011;28;20022;-55
2021/04/03 12:17:10;;;;;;;15.82;10.20;;;;;;;;;;5015580;28;20502;-55
2021/04/03 12:19:36;;;;;;;14.93;10.52;;;;;;;;;;5015706;28;20034;-55
2021/04/03 12:22:02;;;;;;;13.43;10.57;;;;;;;;;;5015888;28;20482;-55
2021/04/03 12:24:28;;;;;;;21.88;11.73;;;;;;;;;;5015590;28;20033;-55
2021/04/03 12:26:54;;;;;;;16.13;11.10;;;;;;;;;;5015725;28;20149;-55
2021/04/03 12:29:20;;;;;;;21.20;11.55;;;;;;;;;;5015027;28;20478;-55
2021/04/03 12:31:46;;;;;;;16.63;11.07;;;;;;;;;;5015457;28;20033;-56
2021/04/03 12:34:12;;;;;;;20.58;11.85;;;;;;;;;;5015589;28;20037;-55
2021/04/03 12:36:39;;;;;;;19.92;11.45;;;;;;;;;;5015406;28;20029;-55
2021/04/03 12:39:05;;;;;;;19.48;11.57;;;;;;;;;;5014519;28;20489;-55
2021/04/03 12:41:31;;;;;;;17.35;11.32;;;;;;;;;;5015249;28;20041;-56
2021/04/03 12:43:57;;;;;;;21.23;12.60;;;;;;;;;;5014890;28;20030;-57
2021/04/03 12:46:25;;;;;;;22.88;12.15;;;;;;;;;;4997161;28;20125;-57
2021/04/03 12:48:51;;;;;;;18.48;11.65;;;;;;;;;;5015449;28;20032;-55
2021/04/03 12:51:17;;;;;;;68.28;40.85;;;;;;;;;;5015101;28;20029;-55
2021/04/03 12:53:43;;;;;;;73.85;32.28;;;;;;;;;;5014933;28;20034;-55
2021/04/03 12:56:09;;;;;;;23.35;15.23;;;;;;;;;;5015019;28;20014;-55
2021/04/03 12:58:36;;;;;;;17.73;13.45;;;;;;;;;;5014830;28;20038;-55
2021/04/03 13:01:02;;;;;;;56.15;39.55;;;;;;;;;;5014553;28;20096;-55
2021/04/03 13:03:30;;;;;;;42.95;25.67;;;;;;;;;;5014430;28;20107;-56
2021/04/03 13:05:56;;;;;;;33.97;21.88;;;;;;;;;;5014520;28;20036;-56
2021/04/03 13:08:22;;;;;;;63.58;34.20;;;;;;;;;;5014107;28;20425;-56
2021/04/03 13:10:49;;;;;;;671.03;253.77;;;;;;;;;;5014583;28;20026;-57
2021/04/03 13:13:15;;;;;;;196.80;122.25;;;;;;;;;;5014572;28;20112;-55
2021/04/03 13:15:41;;;;;;;21.60;14.80;;;;;;;;;;5014102;28;20076;-55
2021/04/03 13:18:07;;;;;;;24.75;13.25;;;;;;;;;;5014221;28;20069;-51
2021/04/03 13:20:33;;;;;;;22.20;15.02;;;;;;;;;;4999047;28;20352;-56
2021/04/03 13:23:02;;;;;;;25.05;14.43;;;;;;;;;;4997169;28;20741;-57
2021/04/03 13:25:28;;;;;;;68.65;35.20;;;;;;;;;;4996508;28;20038;-57
2021/04/03 13:27:54;;;;;;;28.58;15.82;;;;;;;;;;4997653;28;20751;-58
2021/04/03 13:30:21;;;;;;;25.17;14.68;;;;;;;;;;4997593;28;20029;-55
2021/04/03 13:32:47;;;;;;;31.23;14.82;;;;;;;;;;4997321;28;20025;-57
2021/04/03 13:35:13;;;;;;;25.60;15.68;;;;;;;;;;4997308;28;20409;-58
2021/04/03 13:37:39;;;;;;;54.35;27.02;;;;;;;;;;4997158;28;20062;-54
2021/04/03 13:40:06;;;;;;;38.40;21.17;;;;;;;;;;4997046;28;20029;-53
2021/04/03 13:42:32;;;;;;;62.35;29.90;;;;;;;;;;4996177;28;20477;-49
2021/04/03 13:44:58;;;;;;;42.85;23.27;;;;;;;;;;4996628;28;20340;-55
2021/04/03 13:47:24;;;;;;;71.38;39.60;;;;;;;;;;4997282;28;20041;-54
2021/04/03 13:49:50;;;;;;;56.90;32.85;;;;;;;;;;4997038;28;20029;-60
2021/04/03 13:52:16;;;;;;;80.85;51.15;;;;;;;;;;4997020;28;20080;-53
2021/04/03 13:54:42;;;;;;;45.50;25.92;;;;;;;;;;4996729;28;20037;-57
2021/04/03 13:57:08;;;;;;;44.28;24.45;;;;;;;;;;4996599;28;20049;-51
2021/04/03 13:59:35;;;;;;;42.33;23.08;;;;;;;;;;4996834;28;20030;-54
2021/04/03 14:02:01;;;;;;;74.47;43.22;;;;;;;;;;4996808;28;20053;-53
2021/04/03 14:04:27;;;;;;;53.60;29.48;;;;;;;;;;4996545;28;20029;-64
2021/04/03 14:06:53;;;;;;;43.42;23.73;;;;;;;;;;4996625;28;20075;-60
2021/04/03 14:09:20;;;;;;;31.35;15.45;;;;;;;;;;4996669;28;20026;-51
2021/04/03 14:11:46;;;;;;;30.63;17.35;;;;;;;;;;4996897;28;20029;-55
2021/04/03 14:14:12;;;;;;;32.85;17.20;;;;;;;;;;4996934;28;20022;-57
2021/04/03 14:16:38;;;;;;;53.45;23.10;;;;;;;;;;4996518;28;20804;-53
2021/04/03 14:19:04;;;;;;;30.88;15.02;;;;;;;;;;4996643;28;20037;-56